Time;durP1;ratioP1;P1;durP2;ratioP2;P2;SDS_P1;SDS_P2;PMS_P1;PMS_P2;Temp;Humidity;BMP_temperature;BMP_pressure;BME280_temperature;BME280_humidity;BME280_pressure;Samples;Min_cycle;Max_cycle;Signal;HPM_P1;HPM_P2
2024/01/25 00:02:09;;;;;;;24.35;4.20;;;10.40;67.40;;;;;;4948775;28;20118;-63
2024/01/25 00:04:34;;;;;;;15.73;3.42;;;10.40;67.50;;;;;;4953039;28;20513;-62
2024/01/25 00:07:00;;;;;;;18.30;4.00;;;10.40;67.50;;;;;;4948279;28;20493;-63
2024/01/25 00:09:26;;;;;;;19.77;3.92;;;10.40;67.40;;;;;;4952017;28;20470;-62
2024/01/25 00:11:51;;;;;;;25.05;4.13;;;10.40;67.40;;;;;;4935773;28;20042;-63
2024/01/25 00:14:17;;;;;;;18.80;4.13;;;10.40;67.40;;;;;;4949101;28;21070;-62
2024/01/25 00:16:43;;;;;;;15.60;3.78;;;10.50;67.40;;;;;;4945558;28;20027;-61
2024/01/25 00:19:09;;;;;;;15.82;3.13;;;10.50;67.30;;;;;;4945506;28;20039;-63
2024/01/25 00:21:34;;;;;;;17.38;3.83;;;10.40;67.20;;;;;;4949036;28;20500;-62
2024/01/25 00:24:00;;;;;;;17.60;3.25;;;10.50;67.30;;;;;;4934372;28;20035;-62
2024/01/25 00:26:25;;;;;;;21.17;3.50;;;10.50;67.20;;;;;;4950745;28;20035;-62
2024/01/25 00:28:51;;;;;;;14.13;3.28;;;10.50;67.30;;;;;;4954438;28;20035;-62
2024/01/25 00:31:17;;;;;;;17.30;3.80;;;10.50;67.30;;;;;;4941854;28;20038;-62
2024/01/25 00:33:42;;;;;;;16.70;3.50;;;10.60;67.30;;;;;;4945794;28;20031;-62
2024/01/25 00:36:09;;;;;;;22.17;3.33;;;10.50;67.20;;;;;;4945886;28;20031;-62
2024/01/25 00:38:35;;;;;;;9.75;2.70;;;10.50;67.30;;;;;;4948631;28;20417;-63
2024/01/25 00:41:01;;;;;;;18.17;4.40;;;10.60;67.40;;;;;;4951864;28;20042;-64
2024/01/25 00:43:27;;;;;;;16.00;3.90;;;10.60;67.30;;;;;;4946463;28;20034;-62
2024/01/25 00:45:53;;;;;;;17.15;3.38;;;10.60;67.30;;;;;;4860974;28;20124;-64
2024/01/25 00:48:19;;;;;;;22.65;4.18;;;10.50;67.30;;;;;;4941148;28;20110;-63
2024/01/25 00:50:45;;;;;;;20.60;4.40;;;10.60;67.30;;;;;;4947041;28;20110;-64
2024/01/25 00:53:11;;;;;;;17.65;4.32;;;10.60;67.30;;;;;;4947406;28;20047;-63
2024/01/25 00:55:37;;;;;;;20.63;4.28;;;10.60;67.30;;;;;;4953776;28;20414;-61
2024/01/25 00:58:03;;;;;;;16.58;3.50;;;10.60;67.30;;;;;;4953539;28;20125;-62
2024/01/25 01:00:29;;;;;;;21.67;3.95;;;10.60;67.30;;;;;;4948924;28;20027;-62
2024/01/25 01:02:58;;;;;;;14.52;3.15;;;10.60;67.20;;;;;;4944297;28;20050;-64
2024/01/25 01:05:25;;;;;;;22.67;3.53;;;10.60;67.30;;;;;;4946607;28;20402;-64
2024/01/25 01:07:51;;;;;;;16.92;3.42;;;10.60;67.30;;;;;;4944384;28;20034;-63
2024/01/25 01:10:16;;;;;;;17.55;3.88;;;10.60;67.30;;;;;;4948991;28;20027;-63
2024/01/25 01:12:42;;;;;;;17.05;3.60;;;10.60;67.30;;;;;;4944679;28;21137;-63
2024/01/25 01:15:08;;;;;;;24.38;3.97;;;10.60;67.40;;;;;;4942770;28;20035;-63
2024/01/25 01:17:34;;;;;;;24.75;4.55;;;10.60;67.40;;;;;;4947935;28;20035;-63
2024/01/25 01:19:59;;;;;;;18.83;3.80;;;10.60;67.40;;;;;;4947532;28;20035;-63
2024/01/25 01:22:25;;;;;;;17.70;3.58;;;10.60;67.40;;;;;;4945525;28;20046;-63
2024/01/25 01:24:51;;;;;;;20.92;3.55;;;10.60;67.40;;;;;;4945798;28;20027;-64
2024/01/25 01:27:16;;;;;;;18.83;3.80;;;10.60;67.40;;;;;;4926220;28;20031;-62
2024/01/25 01:29:42;;;;;;;21.95;3.85;;;10.60;67.40;;;;;;4946040;28;20033;-63
2024/01/25 01:32:08;;;;;;;19.30;3.33;;;10.60;67.40;;;;;;4928572;29;20035;-62
2024/01/25 01:34:33;;;;;;;18.50;3.33;;;10.60;67.40;;;;;;4940990;28;20036;-62
2024/01/25 01:36:59;;;;;;;11.80;3.10;;;10.60;67.40;;;;;;4949044;28;20035;-62
2024/01/25 01:39:26;;;;;;;24.30;3.63;;;10.60;67.40;;;;;;4945458;28;20033;-63
2024/01/25 01:41:51;;;;;;;23.58;4.03;;;10.60;67.40;;;;;;4946809;28;20118;-62
2024/01/25 01:44:17;;;;;;;20.15;3.90;;;10.50;67.40;;;;;;4942122;28;20085;-61
2024/01/25 01:46:44;;;;;;;19.55;3.65;;;10.60;67.50;;;;;;4880432;28;20045;-62
2024/01/25 01:49:14;;;;;;;16.83;4.15;;;10.60;67.60;;;;;;4950098;28;20031;-62
2024/01/25 01:51:41;;;;;;;21.98;3.63;;;10.60;67.70;;;;;;4954715;28;21239;-62
2024/01/25 01:54:07;;;;;;;21.33;3.67;;;10.60;67.60;;;;;;4948945;28;20061;-62
2024/01/25 01:56:34;;;;;;;18.73;3.78;;;10.60;67.70;;;;;;4955024;28;20039;-62
2024/01/25 01:59:00;;;;;;;30.20;4.57;;;10.60;67.60;;;;;;4950859;28;20166;-61
2024/01/25 02:01:26;;;;;;;19.83;3.83;;;10.60;67.60;;;;;;4949752;28;20035;-61
2024/01/25 02:03:53;;;;;;;18.58;3.85;;;10.60;67.70;;;;;;4954872;28;20038;-62
2024/01/25 02:06:24;;;;;;;18.38;4.13;;;10.60;67.70;;;;;;4950098;28;20058;-63
2024/01/25 02:08:52;;;;;;;24.02;4.07;;;10.60;67.70;;;;;;4952474;28;20041;-63
2024/01/25 02:11:18;;;;;;;21.23;4.05;;;10.60;67.60;;;;;;4949682;28;20892;-62
2024/01/25 02:13:44;;;;;;;16.02;3.80;;;10.60;67.70;;;;;;4947533;28;20486;-63
2024/01/25 02:16:10;;;;;;;20.38;4.13;;;10.60;67.70;;;;;;4946339;28;20038;-62
2024/01/25 02:18:36;;;;;;;15.00;3.75;;;10.60;67.80;;;;;;4952824;28;20034;-63
2024/01/25 02:21:02;;;;;;;21.80;3.90;;;10.60;67.80;;;;;;4948836;28;20039;-64
2024/01/25 02:23:27;;;;;;;24.50;4.03;;;10.70;68.10;;;;;;4952936;28;20031;-62
2024/01/25 02:25:53;;;;;;;24.85;4.90;;;10.60;67.80;;;;;;4953040;28;20486;-62
2024/01/25 02:28:19;;;;;;;21.38;3.60;;;10.70;67.80;;;;;;4951758;28;20046;-64
2024/01/25 02:30:44;;;;;;;18.85;3.97;;;10.70;67.70;;;;;;4951587;28;20490;-63
2024/01/25 02:33:10;;;;;;;21.40;4.10;;;10.70;67.70;;;;;;4950892;28;20507;-63
2024/01/25 02:35:38;;;;;;;35.05;4.32;;;10.70;67.60;;;;;;4950982;28;20054;-63
2024/01/25 02:38:04;;;;;;;20.85;3.67;;;10.70;67.70;;;;;;4950504;28;20453;-63
2024/01/25 02:40:29;;;;;;;22.10;4.03;;;10.70;67.60;;;;;;4953600;28;20038;-64
2024/01/25 02:42:56;;;;;;;20.35;4.28;;;10.70;67.60;;;;;;4953450;28;20455;-63
2024/01/25 02:45:22;;;;;;;20.17;3.88;;;10.70;67.60;;;;;;4852704;28;20490;-63
2024/01/25 02:47:48;;;;;;;18.70;4.07;;;10.70;67.60;;;;;;4949991;28;20063;-63
2024/01/25 02:50:14;;;;;;;23.38;4.43;;;10.70;67.60;;;;;;4951749;28;20065;-64
2024/01/25 02:52:40;;;;;;;46.20;4.50;;;10.70;67.60;;;;;;4948642;28;20084;-62
2024/01/25 02:55:06;;;;;;;19.52;3.80;;;10.70;67.40;;;;;;4947105;28;20046;-62
2024/01/25 02:57:32;;;;;;;19.40;4.22;;;10.70;67.40;;;;;;4957220;28;20035;-62
2024/01/25 02:59:58;;;;;;;26.23;4.60;;;10.70;67.40;;;;;;4947761;28;20027;-62
2024/01/25 03:02:23;;;;;;;20.58;3.65;;;10.70;67.30;;;;;;4951091;28;20047;-62
2024/01/25 03:04:49;;;;;;;27.30;4.28;;;10.70;67.30;;;;;;4952642;28;20126;-63
2024/01/25 03:07:15;;;;;;;18.73;3.70;;;10.70;67.20;;;;;;4946295;28;20034;-62
2024/01/25 03:09:41;;;;;;;16.05;3.45;;;10.70;67.20;;;;;;4945303;28;20027;-63
2024/01/25 03:12:06;;;;;;;28.50;4.07;;;10.70;67.10;;;;;;4949375;28;20035;-62
2024/01/25 03:14:32;;;;;;;16.95;3.78;;;10.70;67.10;;;;;;4934522;29;20606;-62
2024/01/25 03:16:58;;;;;;;17.45;3.80;;;10.70;66.80;;;;;;4951726;28;20721;-63
2024/01/25 03:19:24;;;;;;;18.20;3.90;;;10.70;66.80;;;;;;4946885;28;20027;-63
2024/01/25 03:21:50;;;;;;;17.10;3.83;;;10.70;66.80;;;;;;4950502;28;20129;-63
2024/01/25 03:24:16;;;;;;;20.10;3.67;;;10.70;66.80;;;;;;4945353;28;20094;-63
2024/01/25 03:26:42;;;;;;;15.02;3.40;;;10.70;66.80;;;;;;4952317;28;20198;-63
2024/01/25 03:29:07;;;;;;;26.40;4.53;;;10.70;66.80;;;;;;4949999;28;20126;-62
2024/01/25 03:31:33;;;;;;;16.08;3.65;;;10.70;66.80;;;;;;4947376;28;20066;-63
2024/01/25 03:33:59;;;;;;;19.80;3.58;;;10.70;66.80;;;;;;4954082;28;20035;-61
2024/01/25 03:36:24;;;;;;;23.25;3.78;;;10.70;66.80;;;;;;4947726;28;20399;-62
2024/01/25 03:38:50;;;;;;;19.17;3.97;;;10.70;66.90;;;;;;4952478;28;20118;-62
2024/01/25 03:41:16;;;;;;;23.88;4.03;;;10.70;67.00;;;;;;4951724;28;20031;-62
2024/01/25 03:43:41;;;;;;;19.38;3.95;;;10.70;67.00;;;;;;4949205;28;20031;-64
2024/01/25 03:46:07;;;;;;;16.23;3.92;;;10.70;67.00;;;;;;4857327;28;20038;-63
2024/01/25 03:48:33;;;;;;;19.10;4.15;;;10.70;67.10;;;;;;4951609;28;20027;-63
2024/01/25 03:50:59;;;;;;;16.33;3.95;;;10.70;67.20;;;;;;4950499;28;20394;-62
2024/01/25 03:53:24;;;;;;;21.35;4.03;;;10.70;67.10;;;;;;4947863;28;20070;-63
2024/01/25 03:55:50;;;;;;;19.13;4.20;;;10.70;67.10;;;;;;4947666;28;20027;-63
2024/01/25 03:58:20;;;;;;;20.38;3.97;;;10.70;67.10;;;;;;4947085;28;20061;-63
2024/01/25 04:00:46;;;;;;;23.73;3.47;;;10.70;67.00;;;;;;4942436;28;20027;-63
2024/01/25 04:03:12;;;;;;;20.00;3.97;;;10.70;66.90;;;;;;4951162;28;20113;-62
2024/01/25 04:05:39;;;;;;;20.73;3.67;;;10.70;66.50;;;;;;4946489;28;20054;-63
2024/01/25 04:08:05;;;;;;;20.98;3.90;;;10.70;66.50;;;;;;4955409;28;20026;-63
2024/01/25 04:10:31;;;;;;;21.15;4.10;;;10.60;66.50;;;;;;4948886;28;20442;-63
2024/01/25 04:12:57;;;;;;;18.45;3.70;;;10.70;66.40;;;;;;4953473;28;20037;-63
2024/01/25 04:15:23;;;;;;;21.27;4.03;;;10.60;66.30;;;;;;4945117;28;20066;-63
2024/01/25 04:17:49;;;;;;;15.40;3.72;;;10.70;66.30;;;;;;4952854;28;20031;-63
2024/01/25 04:20:15;;;;;;;15.15;3.80;;;10.70;66.30;;;;;;4950221;28;20600;-62
2024/01/25 04:22:41;;;;;;;16.80;4.55;;;10.60;66.30;;;;;;4953116;28;20082;-64
2024/01/25 04:25:07;;;;;;;19.83;3.38;;;10.60;65.90;;;;;;4940508;28;20499;-63
2024/01/25 04:27:33;;;;;;;28.00;4.72;;;10.60;66.10;;;;;;4946181;28;20035;-63
2024/01/25 04:29:58;;;;;;;17.80;4.07;;;10.60;65.90;;;;;;4945589;28;20062;-63
2024/01/25 04:32:24;;;;;;;22.35;4.25;;;10.60;65.70;;;;;;4947824;28;20027;-62
2024/01/25 04:34:50;;;;;;;14.43;3.65;;;10.60;65.90;;;;;;4943045;28;20082;-62
2024/01/25 04:37:16;;;;;;;19.55;3.30;;;10.60;66.00;;;;;;4943886;28;21797;-63
2024/01/25 04:39:41;;;;;;;19.02;3.47;;;10.60;65.70;;;;;;4942161;28;20105;-63
2024/01/25 04:42:08;;;;;;;19.67;3.97;;;10.60;65.90;;;;;;4942054;28;20058;-62
2024/01/25 04:44:44;;;;;;;17.55;4.15;;;10.60;65.60;;;;;;4943945;28;20469;-63
2024/01/25 04:47:11;;;;;;;19.83;3.60;;;10.60;65.30;;;;;;4944407;28;20035;-63
2024/01/25 04:49:37;;;;;;;24.20;4.40;;;10.60;65.30;;;;;;4947013;28;20368;-62
2024/01/25 04:52:03;;;;;;;17.77;4.03;;;10.60;65.50;;;;;;4949064;28;20039;-62
2024/01/25 04:54:29;;;;;;;20.75;4.10;;;10.60;65.50;;;;;;4950957;28;20521;-62
2024/01/25 04:56:55;;;;;;;18.00;4.43;;;10.60;65.30;;;;;;4947402;28;20134;-63
2024/01/25 04:59:20;;;;;;;24.92;4.72;;;10.60;65.30;;;;;;4951397;28;20117;-63
2024/01/25 05:01:46;;;;;;;21.52;3.78;;;10.60;65.10;;;;;;4949026;28;20105;-63
2024/01/25 05:04:12;;;;;;;19.55;3.95;;;10.50;65.10;;;;;;4957636;28;20103;-62
2024/01/25 05:06:37;;;;;;;23.40;4.45;;;10.50;65.30;;;;;;4926559;29;20426;-63
2024/01/25 05:09:03;;;;;;;26.85;4.97;;;10.50;65.20;;;;;;4924644;29;20115;-62
2024/01/25 05:11:29;;;;;;;16.55;4.28;;;10.50;65.00;;;;;;4927824;29;20040;-62
2024/01/25 05:13:55;;;;;;;21.08;4.03;;;10.40;65.30;;;;;;4927496;29;20579;-63
2024/01/25 05:16:21;;;;;;;24.17;4.30;;;10.40;65.30;;;;;;4927633;29;20031;-62
2024/01/25 05:18:46;;;;;;;22.10;4.13;;;10.40;65.10;;;;;;4931945;29;20099;-64
2024/01/25 05:21:12;;;;;;;16.17;3.42;;;10.40;65.30;;;;;;4924307;29;20040;-62
2024/01/25 05:23:38;;;;;;;20.60;3.55;;;10.40;65.30;;;;;;4930139;29;20035;-63
2024/01/25 05:26:03;;;;;;;27.98;4.25;;;10.40;65.30;;;;;;4923956;29;20135;-62
2024/01/25 05:28:29;;;;;;;22.30;4.22;;;10.30;66.00;;;;;;4913239;29;20070;-62
2024/01/25 05:30:55;;;;;;;20.60;4.25;;;10.30;65.20;;;;;;4932391;29;20098;-62
2024/01/25 05:33:20;;;;;;;19.45;3.65;;;10.20;65.40;;;;;;4927807;29;20035;-64
2024/01/25 05:35:46;;;;;;;19.48;3.92;;;10.20;65.50;;;;;;4928220;29;20031;-63
2024/01/25 05:38:12;;;;;;;20.45;4.28;;;10.20;65.50;;;;;;4930493;29;20046;-63
2024/01/25 05:40:37;;;;;;;20.80;3.80;;;10.10;65.50;;;;;;4926705;29;20049;-62
2024/01/25 05:43:03;;;;;;;19.75;4.15;;;10.10;65.60;;;;;;4927182;29;20053;-63
2024/01/25 05:45:30;;;;;;;22.15;4.88;;;10.10;65.60;;;;;;4929011;29;20015;-61
2024/01/25 05:47:55;;;;;;;17.75;4.35;;;10.00;65.80;;;;;;4929349;29;20031;-63
2024/01/25 05:50:21;;;;;;;16.38;3.45;;;10.00;65.70;;;;;;4922785;29;20048;-62
2024/01/25 05:52:46;;;;;;;24.95;4.18;;;10.00;65.80;;;;;;4927815;29;20031;-62
2024/01/25 05:55:14;;;;;;;28.23;4.38;;;10.00;65.80;;;;;;4926070;29;20309;-64
2024/01/25 05:57:42;;;;;;;18.52;3.53;;;9.90;65.80;;;;;;4929325;29;20039;-62
2024/01/25 06:00:08;;;;;;;16.45;3.80;;;9.90;65.90;;;;;;4927447;29;20087;-62
2024/01/25 06:02:34;;;;;;;16.98;3.30;;;9.90;66.00;;;;;;4925720;29;20118;-62
2024/01/25 06:05:00;;;;;;;21.42;3.88;;;9.80;66.00;;;;;;4932791;29;20113;-63
2024/01/25 06:07:26;;;;;;;19.50;4.05;;;9.80;66.00;;;;;;4945880;28;20186;-62
2024/01/25 06:09:52;;;;;;;18.15;3.95;;;9.80;66.10;;;;;;4943303;28;20031;-62
2024/01/25 06:12:18;;;;;;;19.45;4.07;;;9.70;66.10;;;;;;4950680;28;20509;-63
2024/01/25 06:14:44;;;;;;;25.60;4.68;;;9.70;66.20;;;;;;4943690;28;20031;-63
2024/01/25 06:17:09;;;;;;;24.80;4.43;;;9.70;66.30;;;;;;4945758;28;20045;-62
2024/01/25 06:19:35;;;;;;;20.92;3.88;;;9.70;66.50;;;;;;4946946;28;20042;-62
2024/01/25 06:22:02;;;;;;;22.05;4.18;;;9.60;66.50;;;;;;4947958;28;20506;-62
2024/01/25 06:24:28;;;;;;;18.42;3.58;;;9.60;66.60;;;;;;4940361;28;20347;-63
2024/01/25 06:26:54;;;;;;;23.38;4.15;;;9.60;66.50;;;;;;4950813;28;20031;-62
2024/01/25 06:29:19;;;;;;;20.80;4.07;;;9.60;66.70;;;;;;4931900;28;20032;-62
2024/01/25 06:31:45;;;;;;;24.40;4.90;;;9.60;66.70;;;;;;4926034;28;20122;-62
2024/01/25 06:34:11;;;;;;;22.38;4.03;;;9.60;66.70;;;;;;4953667;28;20035;-63
2024/01/25 06:36:37;;;;;;;24.15;5.88;;;9.60;66.70;;;;;;4947832;28;20035;-62
2024/01/25 06:39:06;;;;;;;22.17;4.35;;;9.50;66.70;;;;;;4948039;28;20053;-62
2024/01/25 06:41:32;;;;;;;22.20;4.63;;;9.50;67.50;;;;;;4946375;28;20563;-62
2024/01/25 06:43:58;;;;;;;21.20;4.20;;;9.50;66.80;;;;;;4947681;28;20019;-62
2024/01/25 06:46:24;;;;;;;20.55;3.92;;;9.50;66.80;;;;;;4849152;28;20138;-63
2024/01/25 06:48:51;;;;;;;21.38;4.28;;;9.50;66.80;;;;;;4955974;28;20142;-61
2024/01/25 06:51:16;;;;;;;22.13;4.25;;;9.50;66.80;;;;;;4945777;28;20054;-62
2024/01/25 06:53:42;;;;;;;26.13;3.65;;;9.40;66.70;;;;;;4950619;28;20031;-63
2024/01/25 06:56:07;;;;;;;20.33;4.40;;;9.40;66.70;;;;;;4946304;28;20118;-63
2024/01/25 06:58:33;;;;;;;23.48;4.78;;;9.40;66.70;;;;;;4954929;28;20031;-62
2024/01/25 07:00:59;;;;;;;22.05;4.38;;;9.40;66.80;;;;;;4946648;28;20122;-63
2024/01/25 07:03:25;;;;;;;26.42;4.78;;;9.40;66.80;;;;;;4952027;28;20405;-62
2024/01/25 07:05:50;;;;;;;22.52;4.05;;;9.30;66.80;;;;;;4942106;28;20051;-63
2024/01/25 07:08:16;;;;;;;18.73;3.20;;;9.30;66.80;;;;;;4945647;28;20039;-63
2024/01/25 07:10:42;;;;;;;18.35;3.88;;;9.30;66.80;;;;;;4952132;28;20038;-62
2024/01/25 07:13:08;;;;;;;13.90;3.65;;;9.30;66.80;;;;;;4950900;28;20028;-62
2024/01/25 07:15:34;;;;;;;17.42;3.88;;;9.30;66.90;;;;;;4948478;28;20019;-64
2024/01/25 07:18:00;;;;;;;14.18;3.35;;;9.20;66.80;;;;;;4951736;28;20050;-64
2024/01/25 07:20:25;;;;;;;13.63;3.35;;;9.20;66.80;;;;;;4949628;28;20043;-64
2024/01/25 07:22:51;;;;;;;20.33;3.80;;;9.20;66.80;;;;;;4951040;28;20039;-64
2024/01/25 07:25:17;;;;;;;20.70;3.85;;;9.10;66.80;;;;;;4948405;28;20050;-64
2024/01/25 07:27:46;;;;;;;15.40;3.70;;;9.10;66.90;;;;;;4954840;28;20032;-64
2024/01/25 07:30:13;;;;;;;20.70;3.42;;;9.10;67.00;;;;;;4934149;28;20541;-66
2024/01/25 07:32:41;;;;;;;21.08;4.18;;;9.00;67.10;;;;;;4947204;28;20035;-64
2024/01/25 07:35:10;;;;;;;18.73;4.55;;;9.10;67.90;;;;;;4948952;28;20094;-64
2024/01/25 07:37:36;;;;;;;19.17;4.90;;;9.00;67.20;;;;;;4947246;28;20450;-64
2024/01/25 07:40:03;;;;;;;21.08;3.97;;;9.00;67.20;;;;;;4934640;28;20036;-63
2024/01/25 07:42:29;;;;;;;16.00;3.58;;;9.00;67.30;;;;;;4948464;28;20049;-64
2024/01/25 07:44:55;;;;;;;15.82;3.55;;;9.00;67.40;;;;;;4929702;28;20023;-64
2024/01/25 07:47:21;;;;;;;21.70;4.18;;;9.00;67.50;;;;;;4873648;28;20106;-64
2024/01/25 07:49:48;;;;;;;23.50;4.47;;;9.00;67.70;;;;;;4947228;28;20162;-65
2024/01/25 07:52:14;;;;;;;19.92;3.10;;;9.00;67.60;;;;;;4953605;28;20054;-65
2024/01/25 07:54:40;;;;;;;16.25;3.22;;;9.00;67.70;;;;;;4952855;28;20447;-65
2024/01/25 07:57:05;;;;;;;16.13;3.20;;;9.00;67.80;;;;;;4945383;28;20050;-64
2024/01/25 07:59:31;;;;;;;26.63;3.95;;;9.10;68.50;;;;;;4948316;28;20019;-65
2024/01/25 08:01:57;;;;;;;18.98;3.85;;;9.10;67.80;;;;;;4951021;28;20192;-64
2024/01/25 08:04:22;;;;;;;20.42;4.15;;;9.10;67.80;;;;;;4950442;28;20030;-63
2024/01/25 08:06:48;;;;;;;22.27;3.97;;;9.10;67.80;;;;;;4950042;28;20067;-65
2024/01/25 08:09:14;;;;;;;17.20;3.83;;;9.20;67.90;;;;;;4945927;28;20038;-64
2024/01/25 08:11:40;;;;;;;17.95;4.15;;;9.20;67.90;;;;;;4956072;28;20031;-64
2024/01/25 08:14:05;;;;;;;14.85;3.70;;;9.20;67.80;;;;;;4949904;28;20070;-63
2024/01/25 08:16:31;;;;;;;24.65;4.30;;;9.30;67.90;;;;;;4950200;28;20054;-64
2024/01/25 08:18:58;;;;;;;20.45;3.70;;;9.20;67.70;;;;;;4948688;28;20494;-65
2024/01/25 08:21:24;;;;;;;20.60;4.45;;;9.30;67.80;;;;;;4950065;28;20094;-65
2024/01/25 08:23:49;;;;;;;20.90;4.22;;;9.30;67.70;;;;;;4948120;28;20031;-65
2024/01/25 08:26:15;;;;;;;21.73;6.32;;;9.40;67.70;;;;;;4928056;29;20032;-64
2024/01/25 08:28:44;;;;;;;27.42;6.70;;;9.40;67.70;;;;;;4945728;28;20027;-64
2024/01/25 08:31:11;;;;;;;20.77;5.13;;;9.40;67.70;;;;;;4944851;28;20034;-63
2024/01/25 08:33:38;;;;;;;23.77;4.85;;;9.50;67.80;;;;;;4946805;28;20486;-63
2024/01/25 08:36:04;;;;;;;20.23;4.65;;;9.50;67.80;;;;;;4950305;28;20122;-64
2024/01/25 08:38:30;;;;;;;26.95;5.35;;;9.60;67.80;;;;;;4949135;28;20582;-64
2024/01/25 08:40:55;;;;;;;24.58;4.28;;;9.70;67.80;;;;;;4944829;28;20039;-63
2024/01/25 08:43:21;;;;;;;22.35;4.53;;;9.70;67.60;;;;;;4949029;28;20106;-64
2024/01/25 08:45:47;;;;;;;20.77;5.38;;;9.80;67.60;;;;;;4879184;28;20470;-65
2024/01/25 08:48:13;;;;;;;18.77;4.88;;;9.90;67.60;;;;;;4941831;28;20046;-64
2024/01/25 08:50:39;;;;;;;18.88;4.45;;;9.90;67.60;;;;;;4948441;28;20039;-64
2024/01/25 08:53:05;;;;;;;17.17;4.22;;;10.00;67.70;;;;;;4942744;28;20038;-64
2024/01/25 08:55:31;;;;;;;29.30;4.35;;;10.20;67.70;;;;;;4944106;28;20036;-64
2024/01/25 08:57:57;;;;;;;14.90;3.78;;;10.30;67.20;;;;;;4946892;28;20498;-64
2024/01/25 09:00:22;;;;;;;27.10;4.40;;;10.30;66.80;;;;;;4950074;28;20042;-63
2024/01/25 09:02:48;;;;;;;22.85;4.78;;;10.40;66.70;;;;;;4950403;28;20066;-64
2024/01/25 09:05:14;;;;;;;25.50;4.05;;;10.40;66.50;;;;;;4945306;28;20058;-64
2024/01/25 09:07:41;;;;;;;24.02;4.28;;;10.50;66.40;;;;;;4947909;28;20034;-63
2024/01/25 09:10:07;;;;;;;22.80;4.38;;;10.60;66.60;;;;;;4948314;28;20035;-64
2024/01/25 09:12:34;;;;;;;24.67;4.47;;;10.60;66.50;;;;;;4946255;28;20455;-65
2024/01/25 09:15:01;;;;;;;22.92;4.95;;;10.70;66.40;;;;;;4944237;28;20603;-64
2024/01/25 09:17:26;;;;;;;17.23;3.65;;;10.70;66.20;;;;;;4947493;28;20031;-63
2024/01/25 09:19:52;;;;;;;18.63;3.67;;;10.80;66.10;;;;;;4955593;28;20402;-64
2024/01/25 09:22:19;;;;;;;21.08;4.00;;;10.80;66.00;;;;;;4950712;28;20039;-65
2024/01/25 09:24:48;;;;;;;29.85;4.25;;;10.90;66.20;;;;;;4948563;28;20035;-65
2024/01/25 09:27:14;;;;;;;27.58;4.55;;;10.90;66.20;;;;;;4951246;28;20375;-64
2024/01/25 09:29:42;;;;;;;30.65;4.88;;;11.00;66.00;;;;;;4928653;28;20577;-64
2024/01/25 09:32:08;;;;;;;24.08;4.93;;;11.00;65.60;;;;;;4945589;28;20027;-64
2024/01/25 09:34:37;;;;;;;23.85;4.28;;;11.00;65.50;;;;;;4945109;28;20062;-64
2024/01/25 09:37:06;;;;;;;21.77;4.15;;;11.10;65.70;;;;;;4953333;28;20039;-64
2024/01/25 09:39:33;;;;;;;20.75;4.20;;;11.20;65.60;;;;;;4949162;28;20527;-64
2024/01/25 09:41:58;;;;;;;24.45;3.83;;;11.20;65.30;;;;;;4948395;28;20823;-63
2024/01/25 09:44:24;;;;;;;24.23;3.83;;;11.20;65.00;;;;;;4944713;28;20130;-64
2024/01/25 09:46:51;;;;;;;18.95;4.13;;;11.20;64.70;;;;;;4887375;28;20106;-63
2024/01/25 09:49:17;;;;;;;22.75;4.20;;;11.20;64.60;;;;;;4943788;28;20045;-64
2024/01/25 09:51:43;;;;;;;16.42;3.88;;;11.20;64.90;;;;;;4946779;28;20707;-64
2024/01/25 09:54:13;;;;;;;19.73;3.63;;;11.20;65.00;;;;;;4946528;28;20510;-64
2024/01/25 09:56:41;;;;;;;19.13;3.95;;;11.30;65.20;;;;;;4950720;28;20027;-64
2024/01/25 09:59:08;;;;;;;25.00;4.00;;;11.30;65.10;;;;;;4951579;28;20494;-64
2024/01/25 10:01:35;;;;;;;22.90;4.57;;;11.40;65.00;;;;;;4945639;28;20070;-64
2024/01/25 10:04:00;;;;;;;20.50;4.15;;;11.40;64.80;;;;;;4951635;28;20085;-63
2024/01/25 10:06:26;;;;;;;20.75;3.58;;;11.40;64.80;;;;;;4944005;28;20189;-65
2024/01/25 10:08:53;;;;;;;24.30;4.55;;;11.50;64.90;;;;;;4943683;28;20087;-64
2024/01/25 10:11:19;;;;;;;17.95;4.10;;;11.50;64.70;;;;;;4952753;28;20102;-64
2024/01/25 10:13:46;;;;;;;28.60;4.88;;;11.60;64.40;;;;;;4947937;28;20027;-64
2024/01/25 10:16:16;;;;;;;19.25;4.07;;;11.70;63.70;;;;;;4950648;28;20110;-64
2024/01/25 10:18:43;;;;;;;21.77;4.75;;;11.70;63.10;;;;;;4955693;28;20103;-64
2024/01/25 10:21:13;;;;;;;26.98;4.38;;;11.70;62.70;;;;;;4951435;28;20599;-65
2024/01/25 10:23:40;;;;;;;24.73;5.03;;;11.70;63.10;;;;;;4949152;28;20273;-63
2024/01/25 10:26:08;;;;;;;25.45;4.40;;;11.80;63.60;;;;;;4949151;28;20031;-65
2024/01/25 10:28:33;;;;;;;29.08;4.60;;;11.80;63.50;;;;;;4955474;28;20026;-65
2024/01/25 10:31:04;;;;;;;16.40;3.70;;;11.90;63.30;;;;;;4931920;28;20442;-65
2024/01/25 10:33:31;;;;;;;23.10;4.30;;;11.90;62.90;;;;;;4950653;28;20330;-65
2024/01/25 10:36:02;;;;;;;25.30;4.18;;;11.90;62.40;;;;;;4934787;28;20031;-63
2024/01/25 10:38:34;;;;;;;16.20;3.67;;;12.00;62.20;;;;;;4957960;28;20023;-65
2024/01/25 10:41:02;;;;;;;16.50;4.03;;;12.00;62.20;;;;;;4947991;28;20031;-62
2024/01/25 10:43:32;;;;;;;23.60;4.57;;;12.10;62.50;;;;;;4948959;28;20043;-64
2024/01/25 10:45:58;;;;;;;18.00;3.92;;;12.10;62.10;;;;;;4948957;28;20082;-65
2024/01/25 10:48:28;;;;;;;20.75;4.30;;;12.20;62.20;;;;;;4904946;28;20069;-64
2024/01/25 10:50:55;;;;;;;19.77;4.30;;;12.20;61.60;;;;;;4953098;28;20023;-64
2024/01/25 10:53:23;;;;;;;36.20;5.38;;;12.30;61.70;;;;;;4948329;28;20750;-64
2024/01/25 10:55:49;;;;;;;26.92;4.20;;;12.30;61.40;;;;;;4953566;28;20034;-64
2024/01/25 10:58:16;;;;;;;19.48;3.80;;;12.40;61.50;;;;;;4951336;28;20102;-64
2024/01/25 11:00:42;;;;;;;19.73;3.67;;;12.50;61.40;;;;;;4952391;28;20035;-65
2024/01/25 11:03:08;;;;;;;15.40;3.58;;;12.50;61.10;;;;;;4953633;28;20058;-64
2024/01/25 11:05:33;;;;;;;21.38;4.43;;;12.60;60.90;;;;;;4949367;28;20098;-64
2024/01/25 11:08:00;;;;;;;16.05;3.60;;;12.70;60.60;;;;;;4946705;28;20035;-65
2024/01/25 11:10:27;;;;;;;20.40;3.90;;;12.70;60.60;;;;;;4949706;28;20046;-64
2024/01/25 11:13:03;;;;;;;28.15;4.47;;;12.90;60.80;;;;;;4929700;28;20038;-65
2024/01/25 11:15:34;;;;;;;25.02;3.97;;;13.00;60.10;;;;;;4951924;28;20478;-65
2024/01/25 11:18:06;;;;;;;17.38;3.50;;;13.10;59.60;;;;;;4952702;28;20090;-66
2024/01/25 11:20:33;;;;;;;17.63;3.65;;;13.20;59.60;;;;;;4955386;28;20038;-65
2024/01/25 11:23:07;;;;;;;22.40;4.55;;;13.30;59.10;;;;;;4943421;28;20726;-65
2024/01/25 11:25:37;;;;;;;22.95;4.88;;;13.40;57.90;;;;;;4951602;28;20034;-65
2024/01/25 11:28:04;;;;;;;22.77;3.40;;;13.40;57.90;;;;;;4956716;28;20027;-64
2024/01/25 11:30:35;;;;;;;18.00;3.80;;;13.50;58.70;;;;;;4950598;28;20103;-64
2024/01/25 11:33:00;;;;;;;15.73;3.72;;;13.50;57.90;;;;;;4937435;29;20083;-65
2024/01/25 11:35:26;;;;;;;17.13;3.63;;;13.60;58.30;;;;;;4948690;28;20035;-64
2024/01/25 11:37:54;;;;;;;15.98;3.28;;;13.60;57.80;;;;;;4947074;28;20086;-65
2024/01/25 11:40:21;;;;;;;15.85;3.40;;;13.60;57.50;;;;;;4935341;28;20035;-64
2024/01/25 11:42:50;;;;;;;17.58;3.55;;;13.60;56.90;;;;;;4947885;28;20037;-64
2024/01/25 11:45:17;;;;;;;15.10;3.92;;;13.60;56.50;;;;;;4870633;28;20406;-64
2024/01/25 11:47:44;;;;;;;16.00;3.70;;;13.60;56.10;;;;;;4950808;28;20035;-63
2024/01/25 11:50:11;;;;;;;19.35;3.88;;;13.60;56.80;;;;;;4953396;28;20085;-65
2024/01/25 11:52:38;;;;;;;18.50;3.70;;;13.60;57.00;;;;;;4948323;28;20062;-65
2024/01/25 11:55:06;;;;;;;21.20;3.70;;;13.60;57.20;;;;;;4956114;28;20042;-63
2024/01/25 11:57:37;;;;;;;17.27;3.47;;;13.70;57.80;;;;;;4948923;28;20319;-64
2024/01/25 12:00:05;;;;;;;16.15;3.40;;;13.80;58.00;;;;;;4954141;28;20545;-65
2024/01/25 12:02:31;;;;;;;18.52;3.83;;;13.90;58.00;;;;;;4951747;28;20573;-65
2024/01/25 12:04:57;;;;;;;20.65;5.85;;;14.00;57.70;;;;;;4951700;28;20058;-64
2024/01/25 12:07:23;;;;;;;18.85;4.07;;;14.10;58.00;;;;;;4950325;28;20028;-65
2024/01/25 12:10:05;;;;;;;17.00;3.75;;;14.20;57.70;;;;;;4954512;28;20113;-64
2024/01/25 12:12:30;;;;;;;17.02;3.65;;;14.20;56.80;;;;;;4949390;28;20031;-65
2024/01/25 12:15:00;;;;;;;17.17;3.63;;;14.30;56.80;;;;;;4951337;28;20026;-65
2024/01/25 12:17:28;;;;;;;15.85;3.80;;;14.30;55.70;;;;;;4951563;28;20090;-64
2024/01/25 12:19:57;;;;;;;15.57;3.25;;;14.20;55.10;;;;;;4943588;28;20034;-64
2024/01/25 12:22:24;;;;;;;18.08;3.95;;;14.20;55.00;;;;;;4946125;28;20165;-65
2024/01/25 12:24:53;;;;;;;15.27;3.53;;;14.10;55.40;;;;;;4948406;28;20038;-65
2024/01/25 12:27:21;;;;;;;17.17;3.40;;;14.00;54.50;;;;;;4952337;28;20027;-64
2024/01/25 12:29:48;;;;;;;12.77;2.95;;;14.00;54.70;;;;;;4951438;28;20027;-65
2024/01/25 12:32:14;;;;;;;16.17;3.63;;;13.90;55.30;;;;;;4948551;28;20038;-64
2024/01/25 12:34:41;;;;;;;15.38;3.53;;;13.90;55.70;;;;;;4950143;28;20386;-64